Time;durP1;ratioP1;P1;durP2;ratioP2;P2;SDS_P1;SDS_P2;PMS_P1;PMS_P2;Temp;Humidity;BMP_temperature;BMP_pressure;BME280_temperature;BME280_humidity;BME280_pressure;Samples;Min_cycle;Max_cycle;Signal;HPM_P1;HPM_P2
2022/11/07 00:00:50;;;;;;;4.03;0.60;;;;;;;-146.48;100.00;60459.00;5304432;28;20020;-71
2022/11/07 00:03:22;;;;;;;4.38;0.70;;;;;;;-146.48;100.00;60459.00;5304908;28;20387;-71
2022/11/07 00:05:53;;;;;;;3.80;0.52;;;;;;;-146.48;100.00;60459.00;5304390;28;20036;-72
2022/11/07 00:08:30;;;;;;;7.20;0.90;;;;;;;-146.48;100.00;60459.00;5304800;28;20031;-71
2022/11/07 00:11:03;;;;;;;2.60;0.50;;;;;;;-146.48;100.00;60459.00;5305133;28;20081;-71
2022/11/07 00:13:34;;;;;;;3.60;0.90;;;;;;;-146.48;100.00;60459.00;5303751;28;20077;-71
2022/11/07 00:16:08;;;;;;;3.97;0.80;;;;;;;-146.48;100.00;60459.00;5305059;28;20020;-71
2022/11/07 00:18:39;;;;;;;3.70;0.80;;;;;;;-146.48;100.00;60459.00;5304625;28;20387;-71
2022/11/07 00:21:10;;;;;;;3.72;0.60;;;;;;;-146.48;100.00;60459.00;5304209;28;20020;-71
2022/11/07 00:23:42;;;;;;;4.45;0.85;;;;;;;-146.48;100.00;60459.00;5304412;28;20102;-71
2022/11/07 00:26:14;;;;;;;3.97;0.77;;;;;;;-146.48;100.00;60459.00;5304367;28;20375;-71
2022/11/07 00:28:45;;;;;;;3.72;0.65;;;;;;;-146.48;100.00;60459.00;5304000;28;20024;-71
2022/11/07 00:31:18;;;;;;;4.38;0.70;;;;;;;-146.48;100.00;60459.00;5304059;28;20040;-72
2022/11/07 00:33:50;;;;;;;8.20;0.85;;;;;;;-146.48;100.00;60459.00;5303720;28;20027;-71
2022/11/07 00:36:24;;;;;;;4.38;0.70;;;;;;;-146.48;100.00;60459.00;5303301;28;20028;-72
2022/11/07 00:38:56;;;;;;;3.75;0.80;;;;;;;-146.48;100.00;60459.00;5304634;28;20020;-71
2022/11/07 00:41:27;;;;;;;5.30;1.17;;;;;;;-146.48;100.00;60459.00;5303129;28;20020;-72
2022/11/07 00:43:59;;;;;;;4.15;0.65;;;;;;;-146.48;100.00;60459.00;5304333;28;20039;-71
2022/11/07 00:46:30;;;;;;;3.28;0.60;;;;;;;-146.48;100.00;60459.00;5304026;28;20426;-72
2022/11/07 00:49:01;;;;;;;4.20;0.80;;;;;;;-146.48;100.00;60459.00;5303671;28;20016;-71
2022/11/07 00:51:32;;;;;;;4.38;1.08;;;;;;;-146.48;100.00;60459.00;5303849;28;20024;-71
2022/11/07 00:54:04;;;;;;;2.75;0.70;;;;;;;-146.48;100.00;60459.00;5304481;28;20379;-71
2022/11/07 00:56:35;;;;;;;7.63;0.70;;;;;;;-146.48;100.00;60459.00;5303032;28;20107;-72
2022/11/07 00:59:06;;;;;;;4.22;0.73;;;;;;;-146.48;100.00;60459.00;5304132;28;20067;-71
2022/11/07 01:01:38;;;;;;;2.25;0.63;;;;;;;-146.48;100.00;60459.00;5303625;28;20564;-70
2022/11/07 01:07:03;;;;;;;4.70;0.60;;;;;;;-146.48;100.00;60459.00;5304455;28;20387;-72
2022/11/07 01:09:34;;;;;;;3.72;0.55;;;;;;;-146.48;100.00;60459.00;5302582;28;20028;-71
2022/11/07 01:12:05;;;;;;;3.38;0.90;;;;;;;-146.48;100.00;60459.00;5303663;28;20444;-71
2022/11/07 01:14:37;;;;;;;3.80;0.55;;;;;;;-146.48;100.00;60459.00;5303335;28;20402;-71
2022/11/07 01:17:08;;;;;;;5.10;0.55;;;;;;;-146.48;100.00;60459.00;5303366;28;20401;-71
2022/11/07 01:19:39;;;;;;;5.13;0.90;;;;;;;-146.48;100.00;60459.00;5303355;28;20024;-71
2022/11/07 01:22:11;;;;;;;4.78;1.15;;;;;;;-146.48;100.00;60459.00;5303850;28;20024;-71
2022/11/07 01:24:42;;;;;;;5.80;0.70;;;;;;;-146.48;100.00;60459.00;5302646;28;20554;-71
2022/11/07 01:27:13;;;;;;;4.22;1.05;;;;;;;-146.48;100.00;60459.00;5302959;28;20016;-71
2022/11/07 01:29:44;;;;;;;4.03;0.70;;;;;;;-146.48;100.00;60459.00;5303619;28;20028;-71
2022/11/07 01:32:16;;;;;;;5.07;0.60;;;;;;;-146.48;100.00;60459.00;5302115;28;20036;-71
2022/11/07 01:34:47;;;;;;;3.47;0.68;;;;;;;-146.48;100.00;60459.00;5303570;28;20031;-71
2022/11/07 01:37:19;;;;;;;3.00;0.60;;;;;;;-146.48;100.00;60459.00;5302268;28;20024;-71
2022/11/07 01:39:50;;;;;;;4.90;0.80;;;;;;;-146.48;100.00;60459.00;5303430;28;20056;-71
2022/11/07 01:42:22;;;;;;;5.18;0.88;;;;;;;-146.48;100.00;60459.00;5302768;28;20032;-71
2022/11/07 01:44:57;;;;;;;5.25;0.98;;;;;;;-146.48;100.00;60459.00;5302389;28;20467;-71
2022/11/07 01:47:34;;;;;;;4.65;0.60;;;;;;;-146.48;100.00;60459.00;5302754;28;20024;-71
2022/11/07 01:50:06;;;;;;;5.00;0.70;;;;;;;-146.48;100.00;60459.00;5303415;28;20368;-71
2022/11/07 01:52:42;;;;;;;3.65;0.80;;;;;;;-146.48;100.00;60459.00;5302167;28;20119;-71
2022/11/07 01:55:22;;;;;;;7.10;0.80;;;;;;;-146.48;100.00;60459.00;5302734;28;20119;-71
2022/11/07 01:57:57;;;;;;;4.80;0.65;;;;;;;-146.48;100.00;60459.00;5303183;28;20026;-71
2022/11/07 02:00:30;;;;;;;5.65;1.05;;;;;;;-146.48;100.00;60459.00;5301695;28;20032;-71
2022/11/07 02:03:10;;;;;;;3.88;0.60;;;;;;;-146.48;100.00;60459.00;5303391;28;20477;-70
2022/11/07 02:06:07;;;;;;;6.40;0.68;;;;;;;-146.48;100.00;60459.00;5301783;28;20122;-71
2022/11/07 02:08:41;;;;;;;5.65;0.70;;;;;;;-146.48;100.00;60459.00;5293550;28;20446;-71
2022/11/07 02:11:12;;;;;;;6.30;0.70;;;;;;;-146.48;100.00;60459.00;5302578;28;20446;-71
2022/11/07 02:13:44;;;;;;;3.30;0.52;;;;;;;-146.48;100.00;60459.00;5302297;28;20116;-71
2022/11/07 02:16:16;;;;;;;5.60;0.98;;;;;;;-146.48;100.00;60459.00;5302524;28;20024;-72
2022/11/07 02:18:47;;;;;;;2.75;0.68;;;;;;;-146.48;100.00;60459.00;5302922;28;20111;-72
2022/11/07 02:21:33;;;;;;;5.00;0.85;;;;;;;-146.48;100.00;60459.00;5301522;28;20034;-71
2022/11/07 02:24:07;;;;;;;4.85;0.77;;;;;;;-146.48;100.00;60459.00;5302815;28;20032;-73
2022/11/07 02:26:40;;;;;;;5.28;0.60;;;;;;;-146.48;100.00;60459.00;5301600;28;20464;-71
2022/11/07 02:29:11;;;;;;;5.28;0.65;;;;;;;-146.48;100.00;60459.00;5302723;28;20024;-71
2022/11/07 02:31:43;;;;;;;5.35;0.77;;;;;;;-146.48;100.00;60459.00;5302244;28;20040;-71
2022/11/07 02:34:14;;;;;;;5.07;0.80;;;;;;;-146.48;100.00;60459.00;5301702;28;20442;-71
2022/11/07 02:36:45;;;;;;;3.38;0.80;;;;;;;-146.48;100.00;60459.00;5302959;28;20020;-71
2022/11/07 02:39:16;;;;;;;7.95;0.68;;;;;;;-146.48;100.00;60459.00;5302256;28;20031;-71
2022/11/07 02:41:49;;;;;;;8.73;0.75;;;;;;;-146.48;100.00;60459.00;5301860;28;20059;-71
2022/11/07 02:44:20;;;;;;;7.97;1.60;;;;;;;-146.48;100.00;60459.00;5301978;28;20049;-70
2022/11/07 02:46:52;;;;;;;5.00;0.93;;;;;;;-146.48;100.00;60459.00;5302821;28;20458;-72
2022/11/07 02:49:23;;;;;;;5.32;0.70;;;;;;;-146.48;100.00;60459.00;5301347;28;20020;-70
2022/11/07 02:51:54;;;;;;;5.28;0.70;;;;;;;-146.48;100.00;60459.00;5302573;28;20052;-70
2022/11/07 02:54:26;;;;;;;4.70;0.65;;;;;;;-146.48;100.00;60459.00;5301949;28;20035;-71
2022/11/07 02:56:57;;;;;;;7.22;0.85;;;;;;;-146.48;100.00;60459.00;5302058;28;20026;-71
2022/11/07 02:59:28;;;;;;;3.85;0.60;;;;;;;-146.48;100.00;60459.00;5306137;28;20090;-70
2022/11/07 03:01:59;;;;;;;8.05;0.70;;;;;;;-146.48;100.00;60459.00;5305889;28;20380;-71
2022/11/07 03:04:31;;;;;;;7.03;0.90;;;;;;;-146.48;100.00;60459.00;5306029;28;20032;-71
2022/11/07 03:07:02;;;;;;;5.95;0.73;;;;;;;-146.48;100.00;60459.00;5306523;28;20028;-71
2022/11/07 03:09:33;;;;;;;4.57;0.80;;;;;;;-146.48;100.00;60459.00;5305326;28;20060;-71
2022/11/07 03:12:05;;;;;;;6.97;0.80;;;;;;;-146.48;100.00;60459.00;5306374;28;20032;-71
2022/11/07 03:14:36;;;;;;;7.13;0.82;;;;;;;-146.48;100.00;60459.00;5305747;28;20494;-71
2022/11/07 03:17:07;;;;;;;9.48;0.82;;;;;;;-146.48;100.00;60459.00;5305493;28;20024;-72
2022/11/07 03:19:39;;;;;;;5.88;0.80;;;;;;;-146.48;100.00;60459.00;5305551;28;20043;-71
2022/11/07 03:22:10;;;;;;;5.63;0.60;;;;;;;-146.48;100.00;60459.00;5306565;28;20028;-71
2022/11/07 03:24:41;;;;;;;5.03;1.25;;;;;;;-146.48;100.00;60459.00;5304835;28;20024;-71
2022/11/07 03:27:14;;;;;;;10.20;1.13;;;;;;;-146.48;100.00;60459.00;5305658;28;20082;-71
2022/11/07 03:29:45;;;;;;;9.25;1.13;;;;;;;-146.48;100.00;60459.00;5305643;28;20024;-71
2022/11/07 03:32:16;;;;;;;7.60;1.30;;;;;;;-146.48;100.00;60459.00;5304184;28;20023;-71
2022/11/07 03:34:48;;;;;;;7.13;0.73;;;;;;;-146.48;100.00;60459.00;5305856;28;20116;-71
2022/11/07 03:37:19;;;;;;;8.82;0.75;;;;;;;-146.48;100.00;60459.00;5304502;28;20382;-71
2022/11/07 03:39:52;;;;;;;7.57;1.27;;;;;;;-146.48;100.00;60459.00;5305832;28;20495;-71
2022/11/07 03:42:23;;;;;;;7.97;0.70;;;;;;;-146.48;100.00;60459.00;5305142;28;20055;-71
2022/11/07 03:44:54;;;;;;;7.50;0.77;;;;;;;-146.48;100.00;60459.00;5305224;28;20030;-71
2022/11/07 03:47:25;;;;;;;5.45;0.73;;;;;;;-146.48;100.00;60459.00;5305337;28;20110;-71
2022/11/07 03:49:57;;;;;;;10.35;1.10;;;;;;;-146.48;100.00;60459.00;5305778;28;20024;-71
2022/11/07 03:52:28;;;;;;;10.93;1.13;;;;;;;-146.48;100.00;60459.00;5304203;28;20047;-71
2022/11/07 03:55:00;;;;;;;10.45;0.65;;;;;;;-146.48;100.00;60459.00;5305639;28;20036;-71
2022/11/07 03:57:31;;;;;;;6.78;0.90;;;;;;;-146.48;100.00;60459.00;5305102;28;20119;-71
2022/11/07 04:00:04;;;;;;;9.40;1.13;;;;;;;-146.48;100.00;60459.00;5304799;28;20023;-71
2022/11/07 04:02:35;;;;;;;5.05;0.90;;;;;;;-146.48;100.00;60459.00;5304761;28;20024;-70
2022/11/07 04:05:07;;;;;;;5.63;0.60;;;;;;;-146.48;100.00;60459.00;5304527;28;20020;-71
2022/11/07 04:07:39;;;;;;;7.07;0.95;;;;;;;-146.48;100.00;60459.00;5304676;28;20085;-71
2022/11/07 04:10:10;;;;;;;6.53;0.65;;;;;;;-146.48;100.00;60459.00;5305396;28;20419;-71
2022/11/07 04:18:22;;;;;;;10.63;1.25;;;;;;;-146.48;100.00;60459.00;5304828;28;20040;-72
2022/11/07 04:20:54;;;;;;;8.77;0.77;;;;;;;-146.48;100.00;60459.00;5304236;28;20020;-72
2022/11/07 04:23:25;;;;;;;11.25;2.10;;;;;;;-146.48;100.00;60459.00;5304443;28;20379;-72
2022/11/07 04:28:46;;;;;;;6.55;0.63;;;;;;;-146.48;100.00;60459.00;5304835;28;20032;-72
2022/11/07 04:31:17;;;;;;;5.78;0.70;;;;;;;-146.48;100.00;60459.00;5304046;28;20040;-72
2022/11/07 04:33:48;;;;;;;8.30;0.60;;;;;;;-146.48;100.00;60459.00;5304048;28;20123;-72
2022/11/07 04:36:20;;;;;;;4.93;0.90;;;;;;;-146.48;100.00;60459.00;5304115;28;20110;-72
2022/11/07 04:38:51;;;;;;;11.38;1.00;;;;;;;-146.48;100.00;60459.00;5304686;28;20025;-72
2022/11/07 04:41:23;;;;;;;10.00;1.08;;;;;;;-146.48;100.00;60459.00;5303475;28;20062;-72
2022/11/07 04:43:54;;;;;;;12.75;0.75;;;;;;;-146.48;100.00;60459.00;5304505;28;20024;-71
2022/11/07 04:46:25;;;;;;;9.18;0.90;;;;;;;-146.48;100.00;60459.00;5303765;28;20528;-72
2022/11/07 04:48:56;;;;;;;5.40;0.60;;;;;;;-146.48;100.00;60459.00;5303748;28;20043;-72
2022/11/07 04:51:28;;;;;;;9.73;1.05;;;;;;;-146.48;100.00;60459.00;5304051;28;20028;-71
2022/11/07 04:53:59;;;;;;;8.90;0.95;;;;;;;-146.48;100.00;60459.00;5304459;28;20031;-72
2022/11/07 04:56:30;;;;;;;7.22;0.68;;;;;;;-146.48;100.00;60459.00;5303178;28;20024;-72
2022/11/07 04:59:02;;;;;;;11.60;1.08;;;;;;;-146.48;100.00;60459.00;5304349;28;20031;-72
2022/11/07 05:01:33;;;;;;;8.20;1.02;;;;;;;-146.48;100.00;60459.00;5302792;28;20028;-72
2022/11/07 05:04:04;;;;;;;9.45;0.93;;;;;;;-146.48;100.00;60459.00;5304308;28;20460;-72
2022/11/07 05:06:36;;;;;;;9.48;1.00;;;;;;;-146.48;100.00;60459.00;5303689;28;20034;-72
2022/11/07 05:09:13;;;;;;;9.45;0.93;;;;;;;-146.48;100.00;60459.00;5303339;28;20059;-71
2022/11/07 05:11:46;;;;;;;9.02;1.15;;;;;;;-146.48;100.00;60459.00;5304167;28;20031;-72
2022/11/07 05:14:17;;;;;;;6.68;0.90;;;;;;;-146.48;100.00;60459.00;5303199;28;20464;-72
2022/11/07 05:16:49;;;;;;;10.50;0.90;;;;;;;-146.48;100.00;60459.00;5303249;28;20035;-72
2022/11/07 05:19:21;;;;;;;12.75;1.00;;;;;;;-146.48;100.00;60459.00;5303318;28;20012;-71
2022/11/07 05:23:11;;;;;;;8.05;0.90;;;;;;;-146.48;100.00;60459.00;5303273;28;20028;-72
2022/11/07 05:24:43;;;;;;;4.78;0.80;;;;;;;-146.48;100.00;60459.00;5303051;28;20040;-72
2022/11/07 05:27:16;;;;;;;8.95;0.90;;;;;;;-146.48;100.00;60459.00;5303331;28;20165;-72
2022/11/07 05:29:48;;;;;;;8.68;1.10;;;;;;;-146.48;100.00;60459.00;5302882;28;20039;-72
2022/11/07 05:32:19;;;;;;;9.70;1.25;;;;;;;-146.48;100.00;60459.00;5302946;28;20040;-72
2022/11/07 05:34:50;;;;;;;12.68;0.80;;;;;;;-146.48;100.00;60459.00;5303561;28;20055;-72
2022/11/07 05:37:21;;;;;;;11.43;0.82;;;;;;;-146.48;100.00;60459.00;5302326;28;20084;-72
2022/11/07 05:39:53;;;;;;;5.90;1.38;;;;;;;-146.48;100.00;60459.00;5303659;28;20039;-72
2022/11/07 05:42:24;;;;;;;13.18;1.63;;;;;;;-146.48;100.00;60459.00;5302982;28;20016;-72
2022/11/07 05:44:55;;;;;;;8.98;0.98;;;;;;;-146.48;100.00;60459.00;5302659;28;20020;-72
2022/11/07 05:47:27;;;;;;;9.80;0.90;;;;;;;-146.48;100.00;60459.00;5302518;28;20024;-72
2022/11/07 05:49:58;;;;;;;7.13;0.95;;;;;;;-146.48;100.00;60459.00;5303185;28;20404;-72
2022/11/07 05:52:30;;;;;;;11.27;1.10;;;;;;;-146.48;100.00;60459.00;5302016;28;20028;-72
2022/11/07 05:55:02;;;;;;;9.43;0.85;;;;;;;-146.48;100.00;60459.00;5303503;28;20032;-72
2022/11/07 05:57:33;;;;;;;10.32;0.82;;;;;;;-146.48;100.00;60459.00;5301864;28;20031;-72
2022/11/07 06:00:05;;;;;;;11.85;1.52;;;;;;;-146.48;100.00;60459.00;5302957;28;20020;-72
2022/11/07 06:02:36;;;;;;;10.02;1.48;;;;;;;-146.48;100.00;60459.00;5302778;28;20126;-72
2022/11/07 06:05:08;;;;;;;9.02;1.30;;;;;;;-146.48;100.00;60459.00;5302168;28;20028;-71
2022/11/07 06:07:39;;;;;;;13.13;1.52;;;;;;;-146.48;100.00;60459.00;5302481;28;20081;-72
2022/11/07 06:10:11;;;;;;;9.93;1.30;;;;;;;-146.48;100.00;60459.00;5303023;28;20047;-72
2022/11/07 06:12:42;;;;;;;9.15;1.10;;;;;;;-146.48;100.00;60459.00;5301734;28;20028;-72
2022/11/07 06:15:13;;;;;;;6.72;1.17;;;;;;;-146.48;100.00;60459.00;5302529;28;20472;-72
2022/11/07 06:17:45;;;;;;;10.13;0.95;;;;;;;-146.48;100.00;60459.00;5303039;28;20056;-72
2022/11/07 06:20:16;;;;;;;9.02;1.50;;;;;;;-146.48;100.00;60459.00;5301259;28;20028;-72
2022/11/07 06:22:47;;;;;;;5.90;1.02;;;;;;;-146.48;100.00;60459.00;5302833;28;20032;-72
2022/11/07 06:25:18;;;;;;;8.00;0.95;;;;;;;-146.48;100.00;60459.00;5302410;28;20081;-72
2022/11/07 06:27:50;;;;;;;8.82;0.93;;;;;;;-146.48;100.00;60459.00;5301896;28;20106;-72
2022/11/07 06:30:21;;;;;;;8.55;0.80;;;;;;;-146.48;100.00;60459.00;5301952;28;20479;-72
2022/11/07 06:32:53;;;;;;;9.90;1.00;;;;;;;-146.48;100.00;60459.00;5305220;28;20502;-72
2022/11/07 06:35:24;;;;;;;10.80;1.10;;;;;;;-146.48;100.00;60459.00;5306616;28;20474;-72
2022/11/07 06:37:56;;;;;;;8.70;0.98;;;;;;;-146.48;100.00;60459.00;5307011;28;20034;-71
2022/11/07 06:40:27;;;;;;;7.72;0.68;;;;;;;-146.48;100.00;60459.00;5305714;28;20035;-72
2022/11/07 06:43:14;;;;;;;9.95;1.05;;;;;;;-146.48;100.00;60459.00;5306829;28;20043;-71
2022/11/07 06:45:46;;;;;;;7.68;1.42;;;;;;;-146.48;100.00;60459.00;5306550;28;20024;-72
2022/11/07 06:48:17;;;;;;;12.20;1.42;;;;;;;-146.48;100.00;60459.00;5305342;28;20085;-71
2022/11/07 06:50:55;;;;;;;7.95;1.42;;;;;;;-146.48;100.00;60459.00;5306727;28;20066;-72
2022/11/07 06:53:27;;;;;;;7.00;0.80;;;;;;;-146.48;100.00;60459.00;5306177;28;20073;-72
2022/11/07 06:56:00;;;;;;;9.23;0.95;;;;;;;-146.48;100.00;60459.00;5305818;28;20282;-71
2022/11/07 06:58:31;;;;;;;9.38;1.15;;;;;;;-146.48;100.00;60459.00;5306044;28;20059;-72
2022/11/07 07:01:05;;;;;;;8.75;0.80;;;;;;;-146.48;100.00;60459.00;5305617;28;20024;-72
2022/11/07 07:03:36;;;;;;;10.32;1.73;;;;;;;-146.48;100.00;60459.00;5306081;28;20099;-71
2022/11/07 07:06:15;;;;;;;10.27;1.10;;;;;;;-146.48;100.00;60459.00;5306199;28;20108;-72
2022/11/07 07:08:47;;;;;;;8.57;1.10;;;;;;;-146.48;100.00;60459.00;5305395;28;20402;-72
2022/11/07 07:11:18;;;;;;;9.57;0.98;;;;;;;-146.48;100.00;60459.00;5305676;28;20107;-72
2022/11/07 07:13:49;;;;;;;8.18;0.93;;;;;;;-146.48;100.00;60459.00;5306391;28;20558;-72
2022/11/07 07:16:20;;;;;;;7.90;0.70;;;;;;;-146.48;100.00;60459.00;5304686;28;20117;-72
2022/11/07 07:18:52;;;;;;;7.85;0.90;;;;;;;-146.48;100.00;60459.00;5306084;28;20113;-72
2022/11/07 07:21:23;;;;;;;8.32;1.55;;;;;;;-146.48;100.00;60459.00;5305476;28;20016;-72
2022/11/07 07:23:54;;;;;;;6.60;0.98;;;;;;;-146.48;100.00;60459.00;5305227;28;20031;-71
2022/11/07 07:26:27;;;;;;;12.05;1.00;;;;;;;-146.48;100.00;60459.00;5305771;28;20363;-72
2022/11/07 07:28:58;;;;;;;9.85;0.90;;;;;;;-146.48;100.00;60459.00;5305349;28;20024;-72
2022/11/07 07:31:31;;;;;;;6.97;1.05;;;;;;;-146.48;100.00;60459.00;5305030;28;20054;-71
2022/11/07 07:34:02;;;;;;;9.27;1.02;;;;;;;-146.48;100.00;60459.00;5305602;28;20024;-71
2022/11/07 07:36:33;;;;;;;7.60;0.65;;;;;;;-146.48;100.00;60459.00;5304343;28;20520;-72
2022/11/07 07:39:04;;;;;;;9.85;1.42;;;;;;;-146.48;100.00;60459.00;5305651;28;20030;-71
2022/11/07 07:41:36;;;;;;;8.13;1.00;;;;;;;-146.48;100.00;60459.00;5305153;28;20475;-71
2022/11/07 07:44:07;;;;;;;9.52;1.30;;;;;;;-146.48;100.00;60459.00;5304045;28;20081;-71
2022/11/07 07:46:38;;;;;;;8.82;0.80;;;;;;;-146.48;100.00;60459.00;5304926;28;20059;-71
2022/11/07 07:49:10;;;;;;;11.52;1.55;;;;;;;-146.48;100.00;60459.00;5305448;28;20502;-72
2022/11/07 07:51:41;;;;;;;11.30;1.00;;;;;;;-146.48;100.00;60459.00;5304097;28;20496;-73
2022/11/07 07:54:12;;;;;;;9.30;0.93;;;;;;;-146.48;100.00;60459.00;5304753;28;20456;-74
2022/11/07 07:56:44;;;;;;;8.27;0.90;;;;;;;-146.48;100.00;60459.00;5305636;28;20031;-73
2022/11/07 07:59:15;;;;;;;7.68;1.00;;;;;;;-146.48;100.00;60459.00;5304263;28;20035;-74
2022/11/07 08:01:46;;;;;;;12.10;1.02;;;;;;;-146.48;100.00;60459.00;5305570;28;20024;-75
2022/11/07 08:04:17;;;;;;;11.70;1.30;;;;;;;-146.48;100.00;60459.00;5303932;28;20071;-74
2022/11/07 08:06:49;;;;;;;8.00;1.13;;;;;;;-146.48;100.00;60459.00;5305133;28;20023;-74
2022/11/07 08:09:20;;;;;;;9.82;1.13;;;;;;;-146.48;100.00;60459.00;5304476;28;20052;-74
2022/11/07 08:11:51;;;;;;;7.47;0.90;;;;;;;-146.48;100.00;60459.00;5304255;28;20017;-74
2022/11/07 08:14:22;;;;;;;6.40;0.80;;;;;;;-146.48;100.00;60459.00;5304456;28;20039;-73
2022/11/07 08:16:54;;;;;;;8.20;0.98;;;;;;;-146.48;100.00;60459.00;5305057;28;20086;-74
2022/11/07 08:19:25;;;;;;;9.32;0.82;;;;;;;-146.48;100.00;60459.00;5303378;28;20062;-74
2022/11/07 08:21:57;;;;;;;11.05;1.45;;;;;;;-146.48;100.00;60459.00;5305166;28;20458;-74
2022/11/07 08:24:28;;;;;;;6.93;0.65;;;;;;;-146.48;100.00;60459.00;5299930;28;20032;-74
2022/11/07 08:26:59;;;;;;;9.57;1.00;;;;;;;-146.48;100.00;60459.00;5302563;28;20032;-74
2022/11/07 08:29:31;;;;;;;7.68;0.93;;;;;;;-146.48;100.00;60459.00;5303747;28;20024;-74
2022/11/07 08:32:02;;;;;;;8.65;1.23;;;;;;;-146.48;100.00;60459.00;5303984;28;20074;-75
2022/11/07 08:34:33;;;;;;;6.55;0.80;;;;;;;-146.48;100.00;60459.00;5303123;28;20028;-75
2022/11/07 08:37:04;;;;;;;9.88;1.00;;;;;;;-146.48;100.00;60459.00;5304627;28;20027;-75
2022/11/07 08:39:36;;;;;;;8.38;0.93;;;;;;;-146.48;100.00;60459.00;5303028;28;20125;-74
2022/11/07 08:42:07;;;;;;;9.32;1.52;;;;;;;-146.48;100.00;60459.00;5304306;28;20024;-74
2022/11/07 08:44:38;;;;;;;8.80;0.90;;;;;;;-146.48;100.00;60459.00;5303450;28;20067;-74
2022/11/07 08:47:09;;;;;;;8.98;0.82;;;;;;;-146.48;100.00;60459.00;5303310;28;20540;-74
2022/11/07 08:49:41;;;;;;;6.25;1.02;;;;;;;-146.48;100.00;60459.00;5303227;28;20471;-74
2022/11/07 08:52:12;;;;;;;9.00;0.90;;;;;;;-146.48;100.00;60459.00;5303412;28;20426;-74
2022/11/07 08:54:43;;;;;;;8.18;1.30;;;;;;;-146.48;100.00;60459.00;5302797;28;20016;-73
2022/11/07 08:57:15;;;;;;;12.60;0.82;;;;;;;-146.48;100.00;60459.00;5303307;28;20028;-73
2022/11/07 08:59:46;;;;;;;10.55;0.85;;;;;;;-146.48;100.00;60459.00;5304176;28;20032;-73
2022/11/07 09:02:17;;;;;;;11.95;0.90;;;;;;;-146.48;100.00;60459.00;5302779;28;20028;-73
2022/11/07 09:04:48;;;;;;;7.82;0.73;;;;;;;-146.48;100.00;60459.00;5304084;28;20032;-73
2022/11/07 09:07:20;;;;;;;8.50;0.98;;;;;;;-146.48;100.00;60459.00;5298558;28;20024;-74
2022/11/07 09:09:51;;;;;;;12.57;1.40;;;;;;;-146.48;100.00;60459.00;5287010;28;20056;-74
2022/11/07 09:12:22;;;;;;;7.00;0.93;;;;;;;-146.48;100.00;60459.00;5281813;28;20047;-73
2022/11/07 09:14:54;;;;;;;9.35;1.10;;;;;;;-146.48;100.00;60459.00;5281600;28;20357;-73
2022/11/07 09:17:26;;;;;;;6.03;0.80;;;;;;;-146.48;100.00;60459.00;5281110;28;20111;-74
2022/11/07 09:19:57;;;;;;;6.18;0.98;;;;;;;-146.48;100.00;60459.00;5282217;28;20093;-75
2022/11/07 09:22:29;;;;;;;9.10;1.80;;;;;;;-146.48;100.00;60459.00;5281099;28;20107;-75
2022/11/07 09:25:00;;;;;;;7.22;0.80;;;;;;;-146.48;100.00;60459.00;5282333;28;20544;-77
2022/11/07 09:27:31;;;;;;;6.18;1.00;;;;;;;-146.48;100.00;60459.00;5295053;28;20560;-76
2022/11/07 09:30:04;;;;;;;10.38;1.15;;;;;;;-146.48;100.00;60459.00;5302620;28;20035;-76
2022/11/07 09:32:35;;;;;;;8.40;0.82;;;;;;;-146.48;100.00;60459.00;5302119;28;20077;-75
2022/11/07 09:35:07;;;;;;;10.18;1.17;;;;;;;-146.48;100.00;60459.00;5303730;28;20032;-77
2022/11/07 09:37:39;;;;;;;7.50;0.88;;;;;;;-146.48;100.00;60459.00;5302160;28;20056;-76
2022/11/07 09:40:29;;;;;;;7.18;1.20;;;;;;;-146.48;100.00;60459.00;5303048;28;20093;-76
2022/11/07 09:43:05;;;;;;;6.50;1.00;;;;;;;-146.48;100.00;60459.00;5302552;28;20028;-77
2022/11/07 09:45:49;;;;;;;6.40;1.15;;;;;;;-146.48;100.00;60459.00;5302991;28;20028;-77
2022/11/07 09:48:24;;;;;;;6.85;0.80;;;;;;;-146.48;100.00;60459.00;5302681;28;20408;-76
2022/11/07 09:50:56;;;;;;;7.90;0.60;;;;;;;-146.48;100.00;60459.00;5302409;28;20107;-77
2022/11/07 09:53:33;;;;;;;8.38;1.33;;;;;;;-146.48;100.00;60459.00;5302344;28;20111;-77
2022/11/07 09:56:10;;;;;;;10.40;1.60;;;;;;;-146.48;100.00;60459.00;5303344;28;20356;-77
2022/11/07 09:58:53;;;;;;;8.68;0.93;;;;;;;-146.48;100.00;60459.00;5302043;28;20391;-77
2022/11/07 10:01:29;;;;;;;6.93;0.80;;;;;;;-146.48;100.00;60459.00;5301874;28;20063;-78
2022/11/07 10:04:01;;;;;;;7.75;0.90;;;;;;;-146.48;100.00;60459.00;5302316;28;20039;-77
2022/11/07 10:07:03;;;;;;;6.97;1.10;;;;;;;-146.48;100.00;60459.00;5303388;28;20020;-78
2022/11/07 10:10:05;;;;;;;9.93;1.00;;;;;;;-146.48;100.00;60459.00;5292353;28;20035;-78
2022/11/07 10:13:14;;;;;;;10.93;1.70;;;;;;;-146.48;100.00;60459.00;5299693;28;20036;-77
2022/11/07 10:16:03;;;;;;;;;;;;;;;-146.48;100.00;60459.00;5303342;28;20027;-77
2022/11/07 10:18:58;;;;;;;10.02;1.10;;;;;;;-146.48;100.00;60459.00;5301905;28;19911;-76
2022/11/07 10:21:30;;;;;;;9.52;0.82;;;;;;;-146.48;100.00;60459.00;5302422;28;20020;-77
2022/11/07 10:24:26;;;;;;;11.35;1.27;;;;;;;-146.48;100.00;60459.00;5303020;28;20031;-76
2022/11/07 10:26:58;;;;;;;6.80;0.90;;;;;;;-146.48;100.00;60459.00;5302282;28;20062;-76
2022/11/07 10:29:51;;;;;;;6.72;0.60;;;;;;;-146.48;100.00;60459.00;5302339;28;20077;-76
2022/11/07 10:32:45;;;;;;;11.48;1.25;;;;;;;-146.48;100.00;60459.00;5301374;28;20111;-77
2022/11/07 10:35:40;;;;;;;8.00;1.50;;;;;;;-146.48;100.00;60459.00;5301341;28;20067;-77
2022/11/07 10:38:20;;;;;;;9.65;1.27;;;;;;;-146.48;100.00;60459.00;5302180;28;20024;-76
2022/11/07 10:40:52;;;;;;;7.25;1.02;;;;;;;-146.48;100.00;60459.00;5301920;28;20028;-74
2022/11/07 10:43:26;;;;;;;10.32;0.90;;;;;;;-146.48;100.00;60459.00;5301607;28;20024;-76
2022/11/07 10:46:00;;;;;;;9.27;0.98;;;;;;;-146.48;100.00;60459.00;5301580;28;20114;-75
2022/11/07 10:48:32;;;;;;;6.82;0.85;;;;;;;-146.48;100.00;60459.00;5302061;28;20775;-76
2022/11/07 10:51:03;;;;;;;11.77;1.05;;;;;;;-146.48;100.00;60459.00;5302625;28;20035;-75
2022/11/07 10:53:42;;;;;;;6.95;0.75;;;;;;;-146.48;100.00;60459.00;5301071;28;20024;-75
2022/11/07 10:56:18;;;;;;;9.05;1.15;;;;;;;-146.48;100.00;60459.00;5302136;28;20576;-75
2022/11/07 10:58:49;;;;;;;8.02;0.98;;;;;;;-146.48;100.00;60459.00;5302324;28;20028;-74
2022/11/07 11:01:35;;;;;;;;;;;;;;;;;;;;;
2022/11/07 11:04:07;;;;;;;9.98;1.40;;;;;;;-146.48;100.00;60459.00;5280575;28;20036;-77
2022/11/07 11:06:38;;;;;;;10.07;1.00;;;;;;;-146.48;100.00;60459.00;5289312;28;20032;-75
2022/11/07 11:09:17;;;;;;;10.38;2.05;;;;;;;-146.48;100.00;60459.00;5299482;28;20489;-76
2022/11/07 11:11:51;;;;;;;10.25;1.35;;;;;;;-146.48;100.00;60459.00;5301312;28;20024;-77
2022/11/07 11:14:23;;;;;;;10.00;0.90;;;;;;;-146.48;100.00;60459.00;5300042;28;20031;-77
2022/11/07 11:16:55;;;;;;;10.27;1.00;;;;;;;-146.48;100.00;60459.00;5301268;28;20050;-78
2022/11/07 11:19:47;;;;;;;9.02;1.27;;;;;;;-146.48;100.00;60459.00;5302739;28;20107;-77
2022/11/07 11:22:22;;;;;;;11.52;1.20;;;;;;;-146.48;100.00;60459.00;5303972;28;20086;-78
2022/11/07 11:25:19;;;;;;;9.63;0.93;;;;;;;-146.48;100.00;60459.00;5304881;28;20023;-77
2022/11/07 11:28:00;;;;;;;10.13;1.10;;;;;;;-146.48;100.00;60459.00;5304464;28;20433;-76
2022/11/07 11:30:35;;;;;;;9.30;1.23;;;;;;;-146.48;100.00;60459.00;5303684;28;20820;-76
2022/11/07 11:33:21;;;;;;;8.98;1.02;;;;;;;-146.48;100.00;60459.00;5304858;28;20563;-77
2022/11/07 11:36:02;;;;;;;10.15;1.00;;;;;;;-146.48;100.00;60459.00;5304433;28;20044;-76
2022/11/07 11:38:38;;;;;;;9.65;0.80;;;;;;;-146.48;100.00;60459.00;5304308;28;20031;-76
2022/11/07 11:41:22;;;;;;;10.82;1.00;;;;;;;-146.48;100.00;60459.00;5305079;28;20471;-76
2022/11/07 11:44:02;;;;;;;8.85;0.85;;;;;;;-146.48;100.00;60459.00;5303999;28;20024;-77
2022/11/07 11:46:44;;;;;;;9.30;1.42;;;;;;;-146.48;100.00;60459.00;5304147;28;20017;-77
2022/11/07 11:49:23;;;;;;;8.07;1.23;;;;;;;-146.48;100.00;60459.00;5303154;28;20055;-77